Time;durP1;ratioP1;P1;durP2;ratioP2;P2;SDS_P1;SDS_P2;PMS_P1;PMS_P2;Temp;Humidity;BMP_temperature;BMP_pressure;BME280_temperature;BME280_humidity;BME280_pressure;Samples;Min_cycle;Max_cycle;Signal;HPM_P1;HPM_P2
2022/08/11 00:02:00;;;;;;;;;;;;;;;;;;4968550;28;20001;-42
2022/08/11 00:04:26;;;;;;;;;;;;;;;;;;4972199;28;19925;-42
2022/08/11 00:06:52;;;;;;;;;;;;;;;;;;4979293;28;19918;-41
2022/08/11 00:09:19;;;;;;;;;;;;;;;;;;4967312;28;19918;-41
2022/08/11 00:11:45;;;;;;;;;;;;;;;;;;4968247;28;19910;-41
2022/08/11 00:14:11;;;;;;;;;;;;;;;;;;4967239;28;19914;-40
2022/08/11 00:16:38;;;;;;;;;;;;;;;;;;4965653;28;19914;-41
2022/08/11 00:19:03;;;;;;;;;;;;;;;;;;4966425;28;20451;-42
2022/08/11 00:21:29;;;;;;;;;;;;;;;;;;4966532;28;20013;-41
2022/08/11 00:23:55;;;;;;;;;;;;;;;;;;4967240;28;19937;-41
2022/08/11 00:26:22;;;;;;;;;;;;;;;;;;4966704;28;19965;-41
2022/08/11 00:28:50;;;;;;;;;;;;;;;;;;4966758;28;19915;-41
2022/08/11 00:31:16;;;;;;;;;;;;;;;;;;4966338;28;20379;-40
2022/08/11 00:33:43;;;;;;;;;;;;;;;;;;4966134;28;19916;-42
2022/08/11 00:36:08;;;;;;;;;;;;;;;;;;4966142;28;19945;-41
2022/08/11 00:38:35;;;;;;;;;;;;;;;;;;4966701;28;19911;-41
2022/08/11 00:41:01;;;;;;;;;;;;;;;;;;4966313;28;20379;-42
2022/08/11 00:43:27;;;;;;;;;;;;;;;;;;4966964;28;19965;-41
2022/08/11 00:45:54;;;;;;;;;;;;;;;;;;4966236;28;19918;-42
2022/08/11 00:48:20;;;;;;;;;;;;;;;;;;4966366;28;19920;-41
2022/08/11 00:50:46;;;;;;;;;;;;;;;;;;4965747;28;20302;-42
2022/08/11 00:53:13;;;;;;;;;;;;;;;;;;4966752;28;19911;-40
2022/08/11 00:55:39;;;;;;;;;;;;;;;;;;4965911;28;19941;-41
2022/08/11 00:58:04;;;;;;;;;;;;;;;;;;4966433;28;19914;-41
2022/08/11 01:00:30;;;;;;;;;;;;;;;;;;4965882;28;19993;-40
2022/08/11 01:02:56;;;;;;;;;;;;;;;;;;4966943;28;19925;-41
2022/08/11 01:05:22;;;;;;;;;;;;;;;;;;4965969;28;19918;-41
2022/08/11 01:07:48;;;;;;;;;;;;;;;;;;4966535;28;19921;-41
2022/08/11 01:10:15;;;;;;;;;;;;;;;;;;4968984;28;19914;-40
2022/08/11 01:12:41;;;;;;;;;;;;;;;;;;4969582;28;19917;-41
2022/08/11 01:15:07;;;;;;;;;;;;;;;;;;4968624;28;19914;-42
2022/08/11 01:17:34;;;;;;;;;;;;;;;;;;4970196;28;20029;-41
2022/08/11 01:20:01;;;;;;;;;;;;;;;;;;4968579;28;19910;-41
2022/08/11 01:22:27;;;;;;;;;;;;;;;;;;4969447;28;20375;-41
2022/08/11 01:24:53;;;;;;;;;;;;;;;;;;4969686;28;20025;-41
2022/08/11 01:27:19;;;;;;;;;;;;;;;;;;4970081;28;20361;-41
2022/08/11 01:29:46;;;;;;;;;;;;;;;;;;4969468;28;19917;-41
2022/08/11 01:32:12;;;;;;;;;;;;;;;;;;4970341;28;19914;-42
2022/08/11 01:34:37;;;;;;;;;;;;;;;;;;4969313;28;20286;-41
2022/08/11 01:37:03;;;;;;;;;;;;;;;;;;4969455;28;19921;-41
2022/08/11 01:39:29;;;;;;;;;;;;;;;;;;4969249;28;20346;-41
2022/08/11 01:44:40;;;;;;;;;;;;;;;;;;4969746;28;20394;-41
2022/08/11 01:47:05;;;;;;;;;;;;;;;;;;4969206;28;19910;-41
2022/08/11 01:49:32;;;;;;;;;;;;;;;;;;4968711;28;19910;-41
2022/08/11 01:52:00;;;;;;;;;;;;;;;;;;4969379;28;19910;-42
2022/08/11 01:54:26;;;;;;;;;;;;;;;;;;4969156;28;19914;-40
2022/08/11 01:56:55;;;;;;;;;;;;;;;;;;4969263;28;19961;-41
2022/08/11 01:59:21;;;;;;;;;;;;;;;;;;4968968;28;19910;-42
2022/08/11 02:01:49;;;;;;;;;;;;;;;;;;4968997;28;19937;-41
2022/08/11 02:04:15;;;;;;;;;;;;;;;;;;4968757;28;19953;-42
2022/08/11 02:06:54;;;;;;;;;;;;;;;;;;4969306;28;20323;-42
2022/08/11 02:09:20;;;;;;;;;;;;;;;;;;4969135;28;19972;-42
2022/08/11 02:11:45;;;;;;;;;;;;;;;;;;4968707;28;19964;-42
2022/08/11 02:14:11;;;;;;;;;;;;;;;;;;4969412;28;19910;-41
2022/08/11 02:16:38;;;;;;;;;;;;;;;;;;4968390;28;19924;-41
2022/08/11 02:24:33;;;;;;;;;;;;;;;;;;4968362;28;19925;-42
2022/08/11 02:26:59;;;;;;;;;;;;;;;;;;4968655;28;20320;-42
2022/08/11 02:29:25;;;;;;;;;;;;;;;;;;4968293;28;19921;-42
2022/08/11 02:34:38;;;;;;;;;;;;;;;;;;4968000;28;19917;-41
2022/08/11 02:37:04;;;;;;;;;;;;;;;;;;4968555;28;19914;-43
2022/08/11 02:39:30;;;;;;;;;;;;;;;;;;4968054;28;19924;-41
2022/08/11 02:44:41;;;;;;;;;;;;;;;;;;4969010;28;19925;-41
2022/08/11 02:47:07;;;;;;;;;;;;;;;;;;4968467;28;19911;-41
2022/08/11 02:52:18;;;;;;;;;;;;;;;;;;4967979;28;19917;-42
2022/08/11 02:54:43;;;;;;;;;;;;;;;;;;4968474;28;19914;-41
2022/08/11 02:57:09;;;;;;;;;;;;;;;;;;4968740;28;20461;-41
2022/08/11 02:59:50;;;;;;;;;;;;;;;;;;4967984;28;19914;-41
2022/08/11 03:02:16;;;;;;;;;;;;;;;;;;4968000;28;19910;-41
2022/08/11 03:04:50;;;;;;;;;;;;;;;;;;4968529;28;20473;-41
2022/08/11 03:07:16;;;;;;;;;;;;;;;;;;4967887;28;19946;-42
2022/08/11 03:09:41;;;;;;;;;;;;;;;;;;4968283;28;19910;-42
2022/08/11 03:17:37;;;;;;;;;;;;;;;;;;4967256;28;19946;-40
2022/08/11 03:20:03;;;;;;;;;;;;;;;;;;4967474;28;20308;-41
2022/08/11 03:22:30;;;;;;;;;;;;;;;;;;4967467;28;20363;-41
2022/08/11 03:24:56;;;;;;;;;;;;;;;;;;4967655;28;19925;-41
2022/08/11 03:27:23;;;;;;;;;;;;;;;;;;4967364;28;19918;-41
2022/08/11 03:29:50;;;;;;;;;;;;;;;;;;4967497;28;19914;-41
2022/08/11 03:32:15;;;;;;;;;;;;;;;;;;4967020;28;19913;-42
2022/08/11 03:34:41;;;;;;;;;;;;;;;;;;4967638;28;20338;-42
2022/08/11 03:37:07;;;;;;;;;;;;;;;;;;4967330;28;19917;-41
2022/08/11 03:39:33;;;;;;;;;;;;;;;;;;4967179;28;20311;-41
2022/08/11 03:42:00;;;;;;;;;;;;;;;;;;4967453;28;19922;-41
2022/08/11 03:44:26;;;;;;;;;;;;;;;;;;4966909;28;19925;-41
2022/08/11 03:46:53;;;;;;;;;;;;;;;;;;4967213;28;19915;-42
2022/08/11 03:49:19;;;;;;;;;;;;;;;;;;4966965;28;19929;-42
2022/08/11 03:51:45;;;;;;;;;;;;;;;;;;4966952;28;19914;-42
2022/08/11 03:54:11;;;;;;;;;;;;;;;;;;4967922;28;19910;-41
2022/08/11 03:56:38;;;;;;;;;;;;;;;;;;4966761;28;20488;-41
2022/08/11 03:59:04;;;;;;;;;;;;;;;;;;4966893;28;20379;-41
2022/08/11 04:01:32;;;;;;;;;;;;;;;;;;4966669;28;20031;-41
2022/08/11 04:03:58;;;;;;;;;;;;;;;;;;4967132;28;19922;-41
2022/08/11 04:06:24;;;;;;;;;;;;;;;;;;4966564;28;19924;-41
2022/08/11 04:08:50;;;;;;;;;;;;;;;;;;4966976;28;19922;-41
2022/08/11 04:11:16;;;;;;;;;;;;;;;;;;4966952;28;19914;-41
2022/08/11 04:13:43;;;;;;;;;;;;;;;;;;4966909;28;19970;-41
2022/08/11 04:16:09;;;;;;;;;;;;;;;;;;4965850;28;20374;-42
2022/08/11 04:18:38;;;;;;;;;;;;;;;;;;4966252;28;20012;-40
2022/08/11 04:21:03;;;;;;;;;;;;;;;;;;4966870;28;19921;-41
2022/08/11 04:23:29;;;;;;;;;;;;;;;;;;4966266;28;19914;-41
2022/08/11 04:25:55;;;;;;;;;;;;;;;;;;4966797;28;19996;-42
2022/08/11 04:28:22;;;;;;;;;;;;;;;;;;4966500;28;19953;-41
2022/08/11 04:30:48;;;;;;;;;;;;;;;;;;4966931;28;19910;-41
2022/08/11 04:33:15;;;;;;;;;;;;;;;;;;4966482;28;20449;-40
2022/08/11 04:35:43;;;;;;;;;;;;;;;;;;4966827;28;19936;-41
2022/08/11 04:38:09;;;;;;;;;;;;;;;;;;4966863;28;19983;-41
2022/08/11 04:40:35;;;;;;;;;;;;;;;;;;4966371;28;19935;-41
2022/08/11 04:43:19;;;;;;;;;;;;;;;;;;4966234;28;20012;-41
2022/08/11 04:45:45;;;;;;;;;;;;;;;;;;4965817;28;20391;-42
2022/08/11 05:01:54;;;;;;;;;;;;;;;;;;4966216;28;19917;-41
2022/08/11 05:07:05;;;;;;;;;;;;;;;;;;4966279;28;19937;-41
2022/08/11 05:09:30;;;;;;;;;;;;;;;;;;4965529;28;20391;-41
2022/08/11 05:11:56;;;;;;;;;;;;;;;;;;4966094;28;19918;-41
2022/08/11 05:36:20;;;;;;;;;;;;;;;;;;4965854;28;19918;-42
2022/08/11 05:57:58;;;;;;;;;;;;;;;;;;4969053;28;20446;-41
2022/08/11 06:00:24;;;;;;;;;;;;;;;;;;4968137;28;19910;-41
2022/08/11 06:02:50;;;;;;;;;;;;;;;;;;4964838;28;20053;-41
2022/08/11 06:05:16;;;;;;;;;;;;;;;;;;4969143;28;19922;-41
2022/08/11 06:07:42;;;;;;;;;;;;;;;;;;4969249;28;20288;-42
2022/08/11 06:10:08;;;;;;;;;;;;;;;;;;4969074;28;19910;-41
2022/08/11 06:12:36;;;;;;;;;;;;;;;;;;4967678;28;20295;-41
2022/08/11 06:15:02;;;;;;;;;;;;;;;;;;4968889;28;19941;-41
2022/08/11 06:17:29;;;;;;;;;;;;;;;;;;4968094;28;20407;-41
2022/08/11 06:19:56;;;;;;;;;;;;;;;;;;4969002;28;20315;-41
2022/08/11 06:22:22;;;;;;;;;;;;;;;;;;4967040;28;19914;-39
2022/08/11 06:24:48;;;;;;;;;;;;;;;;;;4970071;28;19932;-39
2022/08/11 06:27:15;;;;;;;;;;;;;;;;;;4969604;28;20344;-39
2022/08/11 06:29:40;;;;;;;;;;;;;;;;;;4968158;28;20276;-39
2022/08/11 06:32:06;;;;;;;;;;;;;;;;;;4966195;28;19925;-39
2022/08/11 06:34:33;;;;;;;;;;;;;;;;;;4968877;28;19918;-39
2022/08/11 06:36:59;;;;;;;;;;;;;;;;;;4969530;28;19961;-39
2022/08/11 06:39:25;;;;;;;;;;;;;;;;;;4967370;28;19953;-39
2022/08/11 06:41:50;;;;;;;;;;;;;;;;;;4970018;28;20421;-39
2022/08/11 06:44:16;;;;;;;;;;;;;;;;;;4969878;28;19918;-39
2022/08/11 06:46:42;;;;;;;;;;;;;;;;;;4969417;28;19944;-39
2022/08/11 06:51:53;;;;;;;;;;;;;;;;;;4949571;29;19921;-40
2022/08/11 06:54:19;;;;;;;;;;;;;;;;;;4949706;29;19915;-40
2022/08/11 07:02:14;;;;;;;;;;;;;;;;;;4969439;28;19965;-41
2022/08/11 07:04:42;;;;;;;;;;;;;;;;;;4969497;28;20375;-40
2022/08/11 07:29:05;;;;;;;;;;;;;;;;;;4968380;28;19972;-40
2022/08/11 07:31:31;;;;;;;;;;;;;;;;;;4967297;28;20326;-40
2022/08/11 07:33:57;;;;;;;;;;;;;;;;;;4967337;28;19925;-41
2022/08/11 07:36:23;;;;;;;;;;;;;;;;;;4968129;28;19914;-41
2022/08/11 07:38:50;;;;;;;;;;;;;;;;;;4968888;28;20072;-41
2022/08/11 07:41:16;;;;;;;;;;;;;;;;;;4969057;28;20585;-40
2022/08/11 07:43:42;;;;;;;;;;;;;;;;;;4967922;28;19914;-42
2022/08/11 07:54:22;;;;;;;;;;;;;;;;;;4967927;28;19984;-41
2022/08/11 07:56:48;;;;;;;;;;;;;;;;;;4966293;28;19918;-41
2022/08/11 08:18:27;;;;;;;;;;;;;;;;;;4967761;28;19974;-40
2022/08/11 08:20:53;;;;;;;;;;;;;;;;;;4966747;28;19962;-41
2022/08/11 08:23:34;;;;;;;;;;;;;;;;;;4967875;28;20363;-41
2022/08/11 08:26:00;;;;;;;;;;;;;;;;;;4967843;28;20016;-41
2022/08/11 08:28:26;;;;;;;;;;;;;;;;;;4964938;28;20068;-42
2022/08/11 08:30:55;;;;;;;;;;;;;;;;;;4963224;28;19923;-43
2022/08/11 08:33:21;;;;;;;;;;;;;;;;;;4967421;28;20303;-43
2022/08/11 08:35:47;;;;;;;;;;;;;;;;;;4964595;28;20381;-43
2022/08/11 08:38:12;;;;;;;;;;;;;;;;;;4978963;28;19918;-42
2022/08/11 08:40:38;;;;;;;;;;;;;;;;;;4967108;28;20005;-41
2022/08/11 08:43:06;;;;;;;;;;;;;;;;;;4965542;28;19918;-41
2022/08/11 08:45:33;;;;;;;;;;;;;;;;;;4968257;28;20422;-43
2022/08/11 08:47:59;;;;;;;;;;;;;;;;;;4967062;28;19914;-42
2022/08/11 08:51:33;;;;;;;;;;;;;;;;;;4967479;28;19914;-42
2022/08/11 08:53:11;;;;;;;;;;;;;;;;;;4968370;28;20038;-43
2022/08/11 08:55:37;;;;;;;;;;;;;;;;;;4968551;28;19910;-43
2022/08/11 08:58:03;;;;;;;;;;;;;;;;;;4968343;28;19973;-42
2022/08/11 09:00:29;;;;;;;;;;;;;;;;;;4968190;28;19914;-42
2022/08/11 09:02:55;;;;;;;;;;;;;;;;;;4967539;28;19918;-42
2022/08/11 09:05:24;;;;;;;;;;;;;;;;;;4968386;28;19922;-42
2022/08/11 09:07:52;;;;;;;;;;;;;;;;;;4968436;28;20669;-43
2022/08/11 09:10:17;;;;;;;;;;;;;;;;;;4967665;28;19922;-42
2022/08/11 09:12:43;;;;;;;;;;;;;;;;;;4967574;28;20130;-43
2022/08/11 09:15:10;;;;;;;;;;;;;;;;;;4968832;28;19910;-41
2022/08/11 09:17:36;;;;;;;;;;;;;;;;;;4967312;28;20307;-42
2022/08/11 09:20:02;;;;;;;;;;;;;;;;;;4968526;28;19914;-42
2022/08/11 09:27:57;;;;;;;;;;;;;;;;;;4966551;28;19921;-42
2022/08/11 09:30:26;;;;;;;;;;;;;;;;;;4966581;28;20375;-42
2022/08/11 09:32:56;;;;;;;;;;;;;;;;;;4971189;28;19926;-42
2022/08/11 09:35:22;;;;;;;;;;;;;;;;;;4972094;28;19960;-42
2022/08/11 09:40:33;;;;;;;;;;;;;;;;;;4964970;28;19933;-41
2022/08/11 09:45:45;;;;;;;;;;;;;;;;;;4971514;28;20401;-43
2022/08/11 09:48:10;;;;;;;;;;;;;;;;;;4970979;28;19914;-42
2022/08/11 09:50:38;;;;;;;;;;;;;;;;;;4971008;28;20395;-41
2022/08/11 09:53:04;;;;;;;;;;;;;;;;;;4971306;28;20292;-41
2022/08/11 09:55:30;;;;;;;;;;;;;;;;;;4968297;28;20004;-42
2022/08/11 09:58:12;;;;;;;;;;;;;;;;;;4971542;28;20451;-42
2022/08/11 10:00:39;;;;;;;;;;;;;;;;;;4970386;28;19922;-42
2022/08/11 10:03:05;;;;;;;;;;;;;;;;;;4971438;28;19922;-42
2022/08/11 10:08:19;;;;;;;;;;;;;;;;;;4950406;28;19960;-43
2022/08/11 10:10:45;;;;;;;;;;;;;;;;;;4971023;28;19911;-41
2022/08/11 10:13:10;;;;;;;;;;;;;;;;;;4971651;28;20358;-42
2022/08/11 10:15:39;;;;;;;;;;;;;;;;;;4970609;28;19910;-42
2022/08/11 10:20:50;;;;;;;;;;;;;;;;;;4970758;28;19969;-44
2022/08/11 10:28:45;;;;;;;;;;;;;;;;;;4970462;28;19917;-42
2022/08/11 10:34:04;;;;;;;;;;;;;;;;;;4970816;28;19937;-42
2022/08/11 10:36:31;;;;;;;;;;;;;;;;;;4970419;28;19920;-42
2022/08/11 10:38:57;;;;;;;;;;;;;;;;;;4971029;28;19957;-42
2022/08/11 10:44:08;;;;;;;;;;;;;;;;;;4953715;28;19961;-43
2022/08/11 10:49:18;;;;;;;;;;;;;;;;;;4970620;28;19921;-42
2022/08/11 10:59:58;;;;;;;;;;;;;;;;;;4968657;28;19921;-43
2022/08/11 11:02:26;;;;;;;;;;;;;;;;;;4969075;28;19918;-43
2022/08/11 11:04:52;;;;;;;;;;;;;;;;;;4968654;28;19918;-43
2022/08/11 11:07:19;;;;;;;;;;;;;;;;;;4969130;28;20387;-44
2022/08/11 11:09:45;;;;;;;;;;;;;;;;;;4968368;28;19918;-43
2022/08/11 11:17:56;;;;;;;;;;;;;;;;;;4964226;28;19956;-43
2022/08/11 11:20:22;;;;;;;;;;;;;;;;;;4968992;28;20004;-43
2022/08/11 11:22:51;;;;;;;;;;;;;;;;;;4969290;28;20363;-43
2022/08/11 11:25:17;;;;;;;;;;;;;;;;;;4969045;28;20004;-44
2022/08/11 11:27:43;;;;;;;;;;;;;;;;;;4969277;28;20974;-42
2022/08/11 11:30:08;;;;;;;;;;;;;;;;;;4969260;28;19918;-43
2022/08/11 11:32:34;;;;;;;;;;;;;;;;;;4968916;28;19972;-43
2022/08/11 11:35:00;;;;;;;;;;;;;;;;;;4968236;28;20066;-43
2022/08/11 11:37:26;;;;;;;;;;;;;;;;;;4968594;28;19915;-42
2022/08/11 11:39:52;;;;;;;;;;;;;;;;;;4968381;28;19918;-42
2022/08/11 11:42:18;;;;;;;;;;;;;;;;;;4966610;28;19914;-43
2022/08/11 11:44:44;;;;;;;;;;;;;;;;;;4968134;28;19926;-41
2022/08/11 11:47:10;;;;;;;;;;;;;;;;;;4969227;28;19914;-42
2022/08/11 11:49:39;;;;;;;;;;;;;;;;;;4969255;28;19965;-45
2022/08/11 11:52:05;;;;;;;;;;;;;;;;;;4968667;28;19925;-42
2022/08/11 11:54:32;;;;;;;;;;;;;;;;;;4968954;28;19914;-42
2022/08/11 12:01:14;;;;;;;;;;;;;;;;;;4968561;28;20350;-44
2022/08/11 12:02:29;;;;;;;;;;;;;;;;;;4966131;28;19992;-42
2022/08/11 12:04:55;;;;;;;;;;;;;;;;;;4967177;28;19996;-43
2022/08/11 12:10:06;;;;;;;;;;;;;;;;;;4968402;28;20374;-42
2022/08/11 12:15:18;;;;;;;;;;;;;;;;;;4968343;28;19921;-44
2022/08/11 12:17:44;;;;;;;;;;;;;;;;;;4968307;28;20302;-43
2022/08/11 12:20:10;;;;;;;;;;;;;;;;;;4968228;28;19918;-44
2022/08/11 12:28:05;;;;;;;;;;;;;;;;;;4968322;28;19965;-43
2022/08/11 12:30:31;;;;;;;;;;;;;;;;;;4967728;28;19921;-44
2022/08/11 12:32:57;;;;;;;;;;;;;;;;;;4966853;28;19914;-43
2022/08/11 12:35:23;;;;;;;;;;;;;;;;;;4967250;28;19954;-42
2022/08/11 12:37:49;;;;;;;;;;;;;;;;;;4967901;28;19970;-43
2022/08/11 12:45:44;;;;;;;;;;;;;;;;;;4966399;28;19929;-44
2022/08/11 12:53:39;;;;;;;;;;;;;;;;;;4968167;28;20457;-43
2022/08/11 12:58:50;;;;;;;;;;;;;;;;;;4966470;28;19925;-43
2022/08/11 13:06:45;;;;;;;;;;;;;;;;;;4952511;29;19973;-43
2022/08/11 13:09:11;;;;;;;;;;;;;;;;;;4968525;28;19921;-44
2022/08/11 13:14:24;;;;;;;;;;;;;;;;;;4969952;28;19922;-43
2022/08/11 13:19:34;;;;;;;;;;;;;;;;;;4969044;28;20461;-43
2022/08/11 13:22:01;;;;;;;;;;;;;;;;;;4969963;28;20009;-45
2022/08/11 13:24:27;;;;;;;;;;;;;;;;;;4969632;28;19914;-43
2022/08/11 13:26:53;;;;;;;;;;;;;;;;;;4971915;28;19917;-43
2022/08/11 13:29:19;;;;;;;;;;;;;;;;;;4969775;28;19918;-44
2022/08/11 13:31:45;;;;;;;;;;;;;;;;;;4970752;28;19922;-42
2022/08/11 13:34:11;;;;;;;;;;;;;;;;;;4970394;28;19922;-43
2022/08/11 13:36:37;;;;;;;;;;;;;;;;;;4971063;28;19910;-42
2022/08/11 13:39:03;;;;;;;;;;;;;;;;;;4969296;28;19914;-42
2022/08/11 13:41:38;;;;;;;;;;;;;;;;;;4968743;28;19925;-44
2022/08/11 13:44:04;;;;;;;;;;;;;;;;;;4965580;28;20017;-43
2022/08/11 13:46:30;;;;;;;;;;;;;;;;;;4965440;28;19993;-42
2022/08/11 13:48:56;;;;;;;;;;;;;;;;;;4971791;28;20048;-43
2022/08/11 13:51:34;;;;;;;;;;;;;;;;;;4968526;28;19922;-43
2022/08/11 13:54:00;;;;;;;;;;;;;;;;;;4971638;28;19914;-43
2022/08/11 13:56:26;;;;;;;;;;;;;;;;;;4969529;28;19949;-43
2022/08/11 13:58:52;;;;;;;;;;;;;;;;;;4969103;28;19924;-44
2022/08/11 14:01:18;;;;;;;;;;;;;;;;;;4971230;28;19914;-43
2022/08/11 14:03:44;;;;;;;;;;;;;;;;;;4968596;28;19918;-44
2022/08/11 14:06:10;;;;;;;;;;;;;;;;;;4970275;28;19965;-42
2022/08/11 14:08:36;;;;;;;;;;;;;;;;;;4976922;28;19918;-43
2022/08/11 14:13:46;;;;;;;;;;;;;;;;;;4969824;28;19925;-46
2022/08/11 14:16:12;;;;;;;;;;;;;;;;;;4970854;28;19918;-43
2022/08/11 14:18:38;;;;;;;;;;;;;;;;;;4969933;28;19921;-45
2022/08/11 14:23:49;;;;;;;;;;;;;;;;;;4969813;28;20330;-44
2022/08/11 14:26:27;;;;;;;;;;;;;;;;;;4969957;28;19922;-46
2022/08/11 14:28:54;;;;;;;;;;;;;;;;;;4969869;28;19969;-45
2022/08/11 14:31:19;;;;;;;;;;;;;;;;;;4968893;28;19914;-46
2022/08/11 14:33:45;;;;;;;;;;;;;;;;;;4969806;28;19925;-44
2022/08/11 14:36:11;;;;;;;;;;;;;;;;;;4970328;28;19918;-43
2022/08/11 14:38:37;;;;;;;;;;;;;;;;;;4969460;28;19921;-43
2022/08/11 14:49:17;;;;;;;;;;;;;;;;;;4951815;28;20546;-43
2022/08/11 14:51:43;;;;;;;;;;;;;;;;;;4970933;28;19914;-44
2022/08/11 14:56:55;;;;;;;;;;;;;;;;;;4967617;28;19973;-42
2022/08/11 14:59:21;;;;;;;;;;;;;;;;;;4969591;28;19914;-43
2022/08/11 15:04:31;;;;;;;;;;;;;;;;;;4966705;28;19990;-44
2022/08/11 15:06:57;;;;;;;;;;;;;;;;;;4970396;28;19910;-43
2022/08/11 15:09:23;;;;;;;;;;;;;;;;;;4967860;28;19914;-43
2022/08/11 15:12:07;;;;;;;;;;;;;;;;;;4956575;28;19977;-42
2022/08/11 15:17:17;;;;;;;;;;;;;;;;;;4968973;28;19936;-44
2022/08/11 15:25:12;;;;;;;;;;;;;;;;;;4969656;28;20470;-43
2022/08/11 15:38:37;;;;;;;;;;;;;;;;;;4988668;28;20564;-45
2022/08/11 15:46:32;;;;;;;;;;;;;;;;;;4968655;28;19940;-45
2022/08/11 15:48:58;;;;;;;;;;;;;;;;;;4963448;28;19923;-42
2022/08/11 15:51:24;;;;;;;;;;;;;;;;;;4968688;28;19969;-43
2022/08/11 15:53:50;;;;;;;;;;;;;;;;;;4969458;28;19910;-45
2022/08/11 15:56:16;;;;;;;;;;;;;;;;;;4964956;28;19950;-43
2022/08/11 16:04:14;;;;;;;;;;;;;;;;;;4947591;28;19965;-43
2022/08/11 16:06:41;;;;;;;;;;;;;;;;;;4968906;28;19924;-44
2022/08/11 16:09:07;;;;;;;;;;;;;;;;;;4969123;28;20399;-46
2022/08/11 16:11:33;;;;;;;;;;;;;;;;;;4968290;28;19922;-44
2022/08/11 16:16:43;;;;;;;;;;;;;;;;;;4968072;28;20014;-44
2022/08/11 16:19:09;;;;;;;;;;;;;;;;;;4968466;28;19927;-43
2022/08/11 16:21:35;;;;;;;;;;;;;;;;;;4968143;28;19914;-43
2022/08/11 16:24:01;;;;;;;;;;;;;;;;;;4969504;28;19940;-43
2022/08/11 16:26:27;;;;;;;;;;;;;;;;;;4967093;28;20013;-46
2022/08/11 16:28:53;;;;;;;;;;;;;;;;;;4968091;28;19973;-45
2022/08/11 16:31:20;;;;;;;;;;;;;;;;;;4967834;28;19911;-45
2022/08/11 16:33:46;;;;;;;;;;;;;;;;;;4949235;28;19914;-47
2022/08/11 16:38:56;;;;;;;;;;;;;;;;;;4967301;28;19973;-46
2022/08/11 16:46:58;;;;;;;;;;;;;;;;;;4966349;28;19925;-43
2022/08/11 16:49:24;;;;;;;;;;;;;;;;;;4967100;28;19918;-44
2022/08/11 16:51:50;;;;;;;;;;;;;;;;;;4968343;28;19918;-43
2022/08/11 16:54:16;;;;;;;;;;;;;;;;;;4968675;28;19910;-43
2022/08/11 16:56:42;;;;;;;;;;;;;;;;;;4968563;28;19944;-44
2022/08/11 16:59:13;;;;;;;;;;;;;;;;;;4961876;28;19945;-46
2022/08/11 17:01:39;;;;;;;;;;;;;;;;;;4966574;28;19914;-43
2022/08/11 17:16:05;;;;;;;;;;;;;;;;;;4967794;28;19916;-45
2022/08/11 17:17:51;;;;;;;;;;;;;;;;;;4968132;28;19910;-44
2022/08/11 17:20:18;;;;;;;;;;;;;;;;;;4979852;28;19918;-44
2022/08/11 17:25:31;;;;;;;;;;;;;;;;;;4967205;28;19924;-43
2022/08/11 17:27:57;;;;;;;;;;;;;;;;;;4967264;28;20543;-42
2022/08/11 17:35:27;;;;;;;;;;;;;;;;;;4966693;28;19926;-44
2022/08/11 17:35:53;;;;;;;;;;;;;;;;;;4967682;28;20374;-44
2022/08/11 17:38:19;;;;;;;;;;;;;;;;;;4962499;28;19922;-42
2022/08/11 17:48:24;;;;;;;;;;;;;;;;;;4959659;28;19910;-42
2022/08/11 17:49:00;;;;;;;;;;;;;;;;;;4966700;28;19942;-45
2022/08/11 17:59:55;;;;;;;;;;;;;;;;;;4969809;28;19961;-44
2022/08/11 18:05:10;;;;;;;;;;;;;;;;;;4947386;28;19918;-44
